sensor_id;sensor_type;location;lat;lon;timestamp;temperature;humidity
20319;DHT22;10317;47.254;11.314;2023-04-01T00:00:57;3.90;99.90
20319;DHT22;10317;47.254;11.314;2023-04-01T00:03:23;4.00;99.90
20319;DHT22;10317;47.254;11.314;2023-04-01T00:05:50;3.90;99.90
20319;DHT22;10317;47.254;11.314;2023-04-01T00:08:16;3.90;99.90
20319;DHT22;10317;47.254;11.314;2023-04-01T00:10:42;3.90;99.90
20319;DHT22;10317;47.254;11.314;2023-04-01T00:13:07;3.90;99.90
20319;DHT22;10317;47.254;11.314;2023-04-01T00:15:34;4.00;99.90
20319;DHT22;10317;47.254;11.314;2023-04-01T00:17:59;3.90;99.90
20319;DHT22;10317;47.254;11.314;2023-04-01T00:20:26;3.90;99.90
20319;DHT22;10317;47.254;11.314;2023-04-01T00:22:52;3.90;99.90
20319;DHT22;10317;47.254;11.314;2023-04-01T00:25:18;3.90;99.90
20319;DHT22;10317;47.254;11.314;2023-04-01T00:27:44;3.90;99.90
20319;DHT22;10317;47.254;11.314;2023-04-01T00:30:10;3.90;99.90
20319;DHT22;10317;47.254;11.314;2023-04-01T00:32:36;3.80;99.90
20319;DHT22;10317;47.254;11.314;2023-04-01T00:35:03;3.80;99.90
20319;DHT22;10317;47.254;11.314;2023-04-01T00:37:29;3.60;99.90
20319;DHT22;10317;47.254;11.314;2023-04-01T00:39:55;3.70;99.90
20319;DHT22;10317;47.254;11.314;2023-04-01T00:42:20;3.60;99.90
20319;DHT22;10317;47.254;11.314;2023-04-01T00:44:54;3.60;99.90
20319;DHT22;10317;47.254;11.314;2023-04-01T00:47:21;3.60;99.90
20319;DHT22;10317;47.254;11.314;2023-04-01T00:49:51;3.50;99.90
20319;DHT22;10317;47.254;11.314;2023-04-01T00:52:22;3.50;99.90
20319;DHT22;10317;47.254;11.314;2023-04-01T00:54:52;3.50;99.90
20319;DHT22;10317;47.254;11.314;2023-04-01T00:57:23;3.40;99.90
20319;DHT22;10317;47.254;11.314;2023-04-01T00:59:52;3.50;99.90
20319;DHT22;10317;47.254;11.314;2023-04-01T01:02:20;3.40;99.90
20319;DHT22;10317;47.254;11.314;2023-04-01T01:04:46;3.30;99.90
20319;DHT22;10317;47.254;11.314;2023-04-01T01:07:36;3.30;99.90
20319;DHT22;10317;47.254;11.314;2023-04-01T01:10:26;3.30;99.90
20319;DHT22;10317;47.254;11.314;2023-04-01T01:15:47;3.30;99.90
20319;DHT22;10317;47.254;11.314;2023-04-01T01:18:45;3.20;99.90
20319;DHT22;10317;47.254;11.314;2023-04-01T01:37:40;3.10;99.90
20319;DHT22;10317;47.254;11.314;2023-04-01T01:40:09;3.10;99.90
20319;DHT22;10317;47.254;11.314;2023-04-01T01:42:39;3.20;99.90
20319;DHT22;10317;47.254;11.314;2023-04-01T01:45:07;3.20;99.90
20319;DHT22;10317;47.254;11.314;2023-04-01T01:47:34;3.30;99.90
20319;DHT22;10317;47.254;11.314;2023-04-01T01:50:01;3.30;99.90
20319;DHT22;10317;47.254;11.314;2023-04-01T01:52:28;3.30;99.90
20319;DHT22;10317;47.254;11.314;2023-04-01T01:54:56;3.30;99.90
20319;DHT22;10317;47.254;11.314;2023-04-01T01:57:33;3.30;99.90
20319;DHT22;10317;47.254;11.314;2023-04-01T02:00:07;3.30;99.90
20319;DHT22;10317;47.254;11.314;2023-04-01T02:02:41;3.20;99.90
20319;DHT22;10317;47.254;11.314;2023-04-01T02:05:10;3.20;99.90
20319;DHT22;10317;47.254;11.314;2023-04-01T02:07:43;3.20;99.90
20319;DHT22;10317;47.254;11.314;2023-04-01T02:10:10;3.20;99.90
20319;DHT22;10317;47.254;11.314;2023-04-01T02:12:37;3.20;99.90
20319;DHT22;10317;47.254;11.314;2023-04-01T02:15:09;3.20;99.90
20319;DHT22;10317;47.254;11.314;2023-04-01T02:17:39;3.20;99.90
20319;DHT22;10317;47.254;11.314;2023-04-01T02:20:11;3.20;99.90
20319;DHT22;10317;47.254;11.314;2023-04-01T02:22:42;3.20;99.90
20319;DHT22;10317;47.254;11.314;2023-04-01T02:25:14;3.20;99.90
20319;DHT22;10317;47.254;11.314;2023-04-01T02:27:43;3.20;99.90
20319;DHT22;10317;47.254;11.314;2023-04-01T02:30:11;3.20;99.90
20319;DHT22;10317;47.254;11.314;2023-04-01T02:32:38;3.20;99.90
20319;DHT22;10317;47.254;11.314;2023-04-01T02:35:10;3.20;99.90
20319;DHT22;10317;47.254;11.314;2023-04-01T02:37:37;3.20;99.90
20319;DHT22;10317;47.254;11.314;2023-04-01T02:40:05;3.30;99.90
20319;DHT22;10317;47.254;11.314;2023-04-01T02:42:35;3.20;99.90
20319;DHT22;10317;47.254;11.314;2023-04-01T02:45:01;3.20;99.90
20319;DHT22;10317;47.254;11.314;2023-04-01T02:47:27;3.20;99.90
20319;DHT22;10317;47.254;11.314;2023-04-01T02:49:52;3.20;99.90
20319;DHT22;10317;47.254;11.314;2023-04-01T02:52:28;3.10;99.90
20319;DHT22;10317;47.254;11.314;2023-04-01T02:54:54;3.10;99.90
20319;DHT22;10317;47.254;11.314;2023-04-01T02:57:20;3.00;99.90
20319;DHT22;10317;47.254;11.314;2023-04-01T02:59:46;3.00;99.90
20319;DHT22;10317;47.254;11.314;2023-04-01T03:02:12;3.00;99.90
20319;DHT22;10317;47.254;11.314;2023-04-01T03:04:38;3.10;99.90
20319;DHT22;10317;47.254;11.314;2023-04-01T03:07:03;3.10;99.90
20319;DHT22;10317;47.254;11.314;2023-04-01T03:09:29;3.10;99.90
20319;DHT22;10317;47.254;11.314;2023-04-01T03:11:55;3.10;99.90
20319;DHT22;10317;47.254;11.314;2023-04-01T03:14:21;3.10;99.90
20319;DHT22;10317;47.254;11.314;2023-04-01T03:16:47;3.10;99.90
20319;DHT22;10317;47.254;11.314;2023-04-01T03:19:12;3.10;99.90
20319;DHT22;10317;47.254;11.314;2023-04-01T03:21:38;3.10;99.90
20319;DHT22;10317;47.254;11.314;2023-04-01T03:24:04;3.10;99.90
20319;DHT22;10317;47.254;11.314;2023-04-01T03:26:30;3.00;99.90
20319;DHT22;10317;47.254;11.314;2023-04-01T03:28:56;3.00;99.90
20319;DHT22;10317;47.254;11.314;2023-04-01T03:31:22;3.00;99.90
20319;DHT22;10317;47.254;11.314;2023-04-01T03:33:48;3.10;99.90
20319;DHT22;10317;47.254;11.314;2023-04-01T03:36:13;3.10;99.90
20319;DHT22;10317;47.254;11.314;2023-04-01T03:38:40;3.10;99.90
20319;DHT22;10317;47.254;11.314;2023-04-01T03:41:06;3.10;99.90
20319;DHT22;10317;47.254;11.314;2023-04-01T03:43:32;3.10;99.90
20319;DHT22;10317;47.254;11.314;2023-04-01T03:45:58;3.20;99.90
20319;DHT22;10317;47.254;11.314;2023-04-01T03:48:25;3.20;99.90
20319;DHT22;10317;47.254;11.314;2023-04-01T03:50:51;3.20;99.90
20319;DHT22;10317;47.254;11.314;2023-04-01T03:53:17;3.20;99.90
20319;DHT22;10317;47.254;11.314;2023-04-01T03:55:43;3.20;99.90
20319;DHT22;10317;47.254;11.314;2023-04-01T03:58:09;3.20;99.90
20319;DHT22;10317;47.254;11.314;2023-04-01T04:00:35;3.30;99.90
20319;DHT22;10317;47.254;11.314;2023-04-01T04:03:01;3.30;99.90
20319;DHT22;10317;47.254;11.314;2023-04-01T04:05:27;3.30;99.90
20319;DHT22;10317;47.254;11.314;2023-04-01T04:07:53;3.30;99.90
20319;DHT22;10317;47.254;11.314;2023-04-01T04:10:19;3.30;99.90
20319;DHT22;10317;47.254;11.314;2023-04-01T04:12:45;3.30;99.90
20319;DHT22;10317;47.254;11.314;2023-04-01T04:15:11;3.30;99.90
20319;DHT22;10317;47.254;11.314;2023-04-01T04:17:40;3.40;99.90
20319;DHT22;10317;47.254;11.314;2023-04-01T04:20:07;3.40;99.90
20319;DHT22;10317;47.254;11.314;2023-04-01T04:22:33;3.40;99.90
20319;DHT22;10317;47.254;11.314;2023-04-01T04:24:59;3.40;99.90
20319;DHT22;10317;47.254;11.314;2023-04-01T04:27:25;3.40;99.90
20319;DHT22;10317;47.254;11.314;2023-04-01T04:29:50;3.40;99.90
20319;DHT22;10317;47.254;11.314;2023-04-01T04:32:16;3.40;99.90
20319;DHT22;10317;47.254;11.314;2023-04-01T04:34:42;3.30;99.90
20319;DHT22;10317;47.254;11.314;2023-04-01T04:37:07;3.30;99.90
20319;DHT22;10317;47.254;11.314;2023-04-01T04:39:33;3.30;99.90
20319;DHT22;10317;47.254;11.314;2023-04-01T04:41:59;3.30;99.90
20319;DHT22;10317;47.254;11.314;2023-04-01T04:44:24;3.30;99.90
20319;DHT22;10317;47.254;11.314;2023-04-01T04:46:50;3.20;99.90
20319;DHT22;10317;47.254;11.314;2023-04-01T04:49:15;3.20;99.90
20319;DHT22;10317;47.254;11.314;2023-04-01T04:51:41;3.20;99.90
20319;DHT22;10317;47.254;11.314;2023-04-01T04:54:07;3.20;99.90
20319;DHT22;10317;47.254;11.314;2023-04-01T04:56:33;3.20;99.90
20319;DHT22;10317;47.254;11.314;2023-04-01T04:58:58;3.20;99.90
20319;DHT22;10317;47.254;11.314;2023-04-01T05:01:24;3.20;99.90
20319;DHT22;10317;47.254;11.314;2023-04-01T05:03:50;3.20;99.90
20319;DHT22;10317;47.254;11.314;2023-04-01T05:06:17;3.20;99.90
20319;DHT22;10317;47.254;11.314;2023-04-01T05:08:44;3.20;99.90
20319;DHT22;10317;47.254;11.314;2023-04-01T05:11:13;3.30;99.90
20319;DHT22;10317;47.254;11.314;2023-04-01T05:13:40;3.30;99.90
20319;DHT22;10317;47.254;11.314;2023-04-01T05:16:17;3.30;99.90
20319;DHT22;10317;47.254;11.314;2023-04-01T05:18:43;3.40;99.90
20319;DHT22;10317;47.254;11.314;2023-04-01T05:21:12;3.50;99.90
20319;DHT22;10317;47.254;11.314;2023-04-01T05:23:38;3.60;99.90
20319;DHT22;10317;47.254;11.314;2023-04-01T05:26:14;3.60;99.90
20319;DHT22;10317;47.254;11.314;2023-04-01T05:28:40;3.60;99.90
20319;DHT22;10317;47.254;11.314;2023-04-01T05:31:06;3.70;99.90
20319;DHT22;10317;47.254;11.314;2023-04-01T05:33:32;3.70;99.90
20319;DHT22;10317;47.254;11.314;2023-04-01T05:36:18;3.80;99.90
20319;DHT22;10317;47.254;11.314;2023-04-01T05:38:44;3.80;99.90
20319;DHT22;10317;47.254;11.314;2023-04-01T05:41:11;3.90;99.90
20319;DHT22;10317;47.254;11.314;2023-04-01T05:43:38;3.90;99.90
20319;DHT22;10317;47.254;11.314;2023-04-01T05:46:04;4.00;99.90
20319;DHT22;10317;47.254;11.314;2023-04-01T05:48:29;4.00;99.90
20319;DHT22;10317;47.254;11.314;2023-04-01T05:50:55;4.10;99.90
20319;DHT22;10317;47.254;11.314;2023-04-01T05:53:21;4.20;99.90
20319;DHT22;10317;47.254;11.314;2023-04-01T05:55:47;4.30;99.90
20319;DHT22;10317;47.254;11.314;2023-04-01T05:58:13;4.40;99.90
20319;DHT22;10317;47.254;11.314;2023-04-01T06:00:39;4.50;99.90
20319;DHT22;10317;47.254;11.314;2023-04-01T06:03:04;4.70;99.90
20319;DHT22;10317;47.254;11.314;2023-04-01T06:05:40;4.80;99.90
20319;DHT22;10317;47.254;11.314;2023-04-01T06:08:13;5.00;99.90
20319;DHT22;10317;47.254;11.314;2023-04-01T06:11:23;5.20;99.90
20319;DHT22;10317;47.254;11.314;2023-04-01T06:19:31;6.60;99.90
20319;DHT22;10317;47.254;11.314;2023-04-01T06:27:40;7.00;99.90
20319;DHT22;10317;47.254;11.314;2023-04-01T06:35:35;6.80;99.90
20319;DHT22;10317;47.254;11.314;2023-04-01T06:41:21;6.50;99.90
20319;DHT22;10317;47.254;11.314;2023-04-01T06:44:16;6.60;99.90
20319;DHT22;10317;47.254;11.314;2023-04-01T06:55:36;9.00;99.90
20319;DHT22;10317;47.254;11.314;2023-04-01T06:58:06;9.60;99.90
20319;DHT22;10317;47.254;11.314;2023-04-01T07:00:40;9.50;99.90
20319;DHT22;10317;47.254;11.314;2023-04-01T07:03:21;9.30;99.90
20319;DHT22;10317;47.254;11.314;2023-04-01T07:05:48;9.30;99.90
20319;DHT22;10317;47.254;11.314;2023-04-01T07:08:23;9.40;99.90
20319;DHT22;10317;47.254;11.314;2023-04-01T07:13:36;9.00;99.90
20319;DHT22;10317;47.254;11.314;2023-04-01T07:16:30;9.00;99.90
20319;DHT22;10317;47.254;11.314;2023-04-01T07:26:00;10.00;99.90
20319;DHT22;10317;47.254;11.314;2023-04-01T07:28:30;10.30;99.90
20319;DHT22;10317;47.254;11.314;2023-04-01T07:53:57;9.60;99.90
20319;DHT22;10317;47.254;11.314;2023-04-01T08:07:25;10.70;99.90
20319;DHT22;10317;47.254;11.314;2023-04-01T08:10:31;11.10;99.90
20319;DHT22;10317;47.254;11.314;2023-04-01T08:22:41;14.40;98.80
20319;DHT22;10317;47.254;11.314;2023-04-01T08:25:17;14.20;95.60
20319;DHT22;10317;47.254;11.314;2023-04-01T08:27:49;14.60;96.60
20319;DHT22;10317;47.254;11.314;2023-04-01T08:30:23;14.70;92.70
20319;DHT22;10317;47.254;11.314;2023-04-01T08:32:57;14.90;93.00
20319;DHT22;10317;47.254;11.314;2023-04-01T08:35:47;15.30;92.70
20319;DHT22;10317;47.254;11.314;2023-04-01T08:56:47;17.00;90.20
20319;DHT22;10317;47.254;11.314;2023-04-01T09:05:16;17.40;87.90
20319;DHT22;10317;47.254;11.314;2023-04-01T09:17:09;16.90;86.10
20319;DHT22;10317;47.254;11.314;2023-04-01T09:22:22;16.80;81.70
20319;DHT22;10317;47.254;11.314;2023-04-01T09:28:27;16.60;83.40
20319;DHT22;10317;47.254;11.314;2023-04-01T09:36:44;16.30;78.10
20319;DHT22;10317;47.254;11.314;2023-04-01T09:39:42;16.30;74.20
20319;DHT22;10317;47.254;11.314;2023-04-01T09:42:43;16.50;80.20
20319;DHT22;10317;47.254;11.314;2023-04-01T09:54:05;16.10;73.20
20319;DHT22;10317;47.254;11.314;2023-04-01T09:56:52;16.40;72.30
20319;DHT22;10317;47.254;11.314;2023-04-01T10:10:58;17.40;66.50
20319;DHT22;10317;47.254;11.314;2023-04-01T10:20:28;16.70;71.00
20319;DHT22;10317;47.254;11.314;2023-04-01T10:26:01;17.50;65.60
20319;DHT22;10317;47.254;11.314;2023-04-01T10:28:51;17.00;64.50
20319;DHT22;10317;47.254;11.314;2023-04-01T10:56:14;17.00;60.50
20319;DHT22;10317;47.254;11.314;2023-04-01T10:59:48;16.80;60.40
20319;DHT22;10317;47.254;11.314;2023-04-01T11:11:12;16.50;58.40
20319;DHT22;10317;47.254;11.314;2023-04-01T11:14:15;16.30;60.50
20319;DHT22;10317;47.254;11.314;2023-04-01T11:34:11;15.90;58.10
20319;DHT22;10317;47.254;11.314;2023-04-01T11:36:52;15.90;58.80
20319;DHT22;10317;47.254;11.314;2023-04-01T11:39:37;15.70;56.90
20319;DHT22;10317;47.254;11.314;2023-04-01T11:42:42;15.60;57.40
20319;DHT22;10317;47.254;11.314;2023-04-01T12:01:25;15.70;57.50
20319;DHT22;10317;47.254;11.314;2023-04-01T12:12:59;15.80;57.90
20319;DHT22;10317;47.254;11.314;2023-04-01T12:20:56;15.40;57.10
20319;DHT22;10317;47.254;11.314;2023-04-01T12:29:24;15.10;56.00
20319;DHT22;10317;47.254;11.314;2023-04-01T12:37:45;15.10;58.50
20319;DHT22;10317;47.254;11.314;2023-04-01T12:48:56;14.60;58.40
20319;DHT22;10317;47.254;11.314;2023-04-01T12:54:30;14.30;58.60
20319;DHT22;10317;47.254;11.314;2023-04-01T12:57:31;14.20;59.40
20319;DHT22;10317;47.254;11.314;2023-04-01T13:19:35;14.10;59.00
20319;DHT22;10317;47.254;11.314;2023-04-01T13:27:17;13.90;60.30
20319;DHT22;10317;47.254;11.314;2023-04-01T13:30:01;13.90;59.80
20319;DHT22;10317;47.254;11.314;2023-04-01T13:40:37;13.70;61.70
20319;DHT22;10317;47.254;11.314;2023-04-01T13:53:51;13.90;64.10
20319;DHT22;10317;47.254;11.314;2023-04-01T14:02:40;14.20;61.10
20319;DHT22;10317;47.254;11.314;2023-04-01T14:07:49;14.40;62.20
20319;DHT22;10317;47.254;11.314;2023-04-01T14:13:18;14.40;58.50
20319;DHT22;10317;47.254;11.314;2023-04-01T14:16:12;14.40;59.50
20319;DHT22;10317;47.254;11.314;2023-04-01T14:26:57;14.00;59.00
20319;DHT22;10317;47.254;11.314;2023-04-01T14:38:23;13.50;60.20
20319;DHT22;10317;47.254;11.314;2023-04-01T14:43:41;13.30;65.30
20319;DHT22;10317;47.254;11.314;2023-04-01T14:51:46;12.80;62.60
20319;DHT22;10317;47.254;11.314;2023-04-01T14:54:16;12.60;63.20
20319;DHT22;10317;47.254;11.314;2023-04-01T14:57:09;12.60;66.90
20319;DHT22;10317;47.254;11.314;2023-04-01T14:59:51;12.60;64.70
20319;DHT22;10317;47.254;11.314;2023-04-01T15:11:04;12.80;67.90
20319;DHT22;10317;47.254;11.314;2023-04-01T15:22:30;12.90;67.30
20319;DHT22;10317;47.254;11.314;2023-04-01T15:25:37;12.80;66.80
20319;DHT22;10317;47.254;11.314;2023-04-01T15:28:25;12.90;68.10
20319;DHT22;10317;47.254;11.314;2023-04-01T15:33:44;12.80;63.20
20319;DHT22;10317;47.254;11.314;2023-04-01T15:37:00;12.60;64.20
20319;DHT22;10317;47.254;11.314;2023-04-01T15:45:12;12.60;70.40
20319;DHT22;10317;47.254;11.314;2023-04-01T15:47:45;12.50;68.50
20319;DHT22;10317;47.254;11.314;2023-04-01T15:58:59;12.50;72.90
20319;DHT22;10317;47.254;11.314;2023-04-01T16:07:58;12.30;70.70
20319;DHT22;10317;47.254;11.314;2023-04-01T16:19:02;12.20;69.20
20319;DHT22;10317;47.254;11.314;2023-04-01T16:21:52;12.10;71.50
20319;DHT22;10317;47.254;11.314;2023-04-01T16:24:30;12.10;70.20
20319;DHT22;10317;47.254;11.314;2023-04-01T16:35:55;11.90;70.90
20319;DHT22;10317;47.254;11.314;2023-04-01T16:38:36;12.00;68.50
20319;DHT22;10317;47.254;11.314;2023-04-01T16:43:50;12.00;68.80
20319;DHT22;10317;47.254;11.314;2023-04-01T16:57:18;11.70;71.10
20319;DHT22;10317;47.254;11.314;2023-04-01T16:59:59;11.60;69.70
20319;DHT22;10317;47.254;11.314;2023-04-01T17:02:35;11.60;70.10
20319;DHT22;10317;47.254;11.314;2023-04-01T17:05:09;11.50;70.80
20319;DHT22;10317;47.254;11.314;2023-04-01T17:08:14;11.40;72.00
20319;DHT22;10317;47.254;11.314;2023-04-01T17:14:09;11.20;71.20
20319;DHT22;10317;47.254;11.314;2023-04-01T17:31:10;10.90;77.60
20319;DHT22;10317;47.254;11.314;2023-04-01T17:44:59;10.60;78.60
20319;DHT22;10317;47.254;11.314;2023-04-01T17:56:01;10.30;79.10
20319;DHT22;10317;47.254;11.314;2023-04-01T18:09:41;10.10;79.40
20319;DHT22;10317;47.254;11.314;2023-04-01T18:12:36;10.10;80.10
20319;DHT22;10317;47.254;11.314;2023-04-01T18:15:40;10.10;79.80
20319;DHT22;10317;47.254;11.314;2023-04-01T18:21:08;9.90;83.80
20319;DHT22;10317;47.254;11.314;2023-04-01T18:23:41;9.90;83.00
20319;DHT22;10317;47.254;11.314;2023-04-01T18:26:23;9.80;83.90
20319;DHT22;10317;47.254;11.314;2023-04-01T18:29:04;9.80;87.20
20319;DHT22;10317;47.254;11.314;2023-04-01T18:31:41;9.70;86.10
20319;DHT22;10317;47.254;11.314;2023-04-01T18:34:36;9.60;86.60
20319;DHT22;10317;47.254;11.314;2023-04-01T18:37:31;9.60;88.40
20319;DHT22;10317;47.254;11.314;2023-04-01T18:40:17;9.50;88.60
20319;DHT22;10317;47.254;11.314;2023-04-01T18:43:10;9.40;89.80
20319;DHT22;10317;47.254;11.314;2023-04-01T18:45:45;9.40;87.80
20319;DHT22;10317;47.254;11.314;2023-04-01T18:54:30;9.40;90.60
20319;DHT22;10317;47.254;11.314;2023-04-01T18:57:30;9.30;90.40
20319;DHT22;10317;47.254;11.314;2023-04-01T19:03:19;9.20;91.70
20319;DHT22;10317;47.254;11.314;2023-04-01T19:06:06;9.20;92.00
20319;DHT22;10317;47.254;11.314;2023-04-01T19:08:35;9.10;91.50
20319;DHT22;10317;47.254;11.314;2023-04-01T19:21:14;8.90;92.70
20319;DHT22;10317;47.254;11.314;2023-04-01T19:40:18;8.60;94.00
20319;DHT22;10317;47.254;11.314;2023-04-01T19:46:23;8.60;95.00
20319;DHT22;10317;47.254;11.314;2023-04-01T19:49:11;8.50;94.40
20319;DHT22;10317;47.254;11.314;2023-04-01T19:59:31;8.30;96.10
20319;DHT22;10317;47.254;11.314;2023-04-01T20:04:44;8.10;96.50
20319;DHT22;10317;47.254;11.314;2023-04-01T20:07:29;8.00;96.30
20319;DHT22;10317;47.254;11.314;2023-04-01T20:15:40;7.70;98.70
20319;DHT22;10317;47.254;11.314;2023-04-01T20:18:23;7.70;99.10
20319;DHT22;10317;47.254;11.314;2023-04-01T20:20:56;7.70;99.60
20319;DHT22;10317;47.254;11.314;2023-04-01T20:26:41;7.50;99.90
20319;DHT22;10317;47.254;11.314;2023-04-01T20:29:34;7.40;99.90
20319;DHT22;10317;47.254;11.314;2023-04-01T20:35:25;7.30;99.90
20319;DHT22;10317;47.254;11.314;2023-04-01T20:41:05;7.00;99.90
20319;DHT22;10317;47.254;11.314;2023-04-01T20:43:35;7.00;99.90
20319;DHT22;10317;47.254;11.314;2023-04-01T20:48:56;6.90;99.90
20319;DHT22;10317;47.254;11.314;2023-04-01T20:51:34;6.80;99.90
20319;DHT22;10317;47.254;11.314;2023-04-01T20:54:31;6.80;99.90
20319;DHT22;10317;47.254;11.314;2023-04-01T20:57:13;6.80;99.90
20319;DHT22;10317;47.254;11.314;2023-04-01T21:07:46;6.60;99.90
20319;DHT22;10317;47.254;11.314;2023-04-01T21:13:15;6.50;99.90
20319;DHT22;10317;47.254;11.314;2023-04-01T21:23:58;6.20;99.90
20319;DHT22;10317;47.254;11.314;2023-04-01T21:29:18;6.10;99.90
20319;DHT22;10317;47.254;11.314;2023-04-01T21:35:14;6.10;99.90
20319;DHT22;10317;47.254;11.314;2023-04-01T21:38:04;6.00;99.90
20319;DHT22;10317;47.254;11.314;2023-04-01T21:40:50;6.00;99.90
20319;DHT22;10317;47.254;11.314;2023-04-01T21:43:59;6.00;99.90
20319;DHT22;10317;47.254;11.314;2023-04-01T22:20:29;5.40;99.90
20319;DHT22;10317;47.254;11.314;2023-04-01T22:23:16;5.30;99.90
20319;DHT22;10317;47.254;11.314;2023-04-01T22:26:05;5.40;99.90
20319;DHT22;10317;47.254;11.314;2023-04-01T22:28:46;5.40;99.90
20319;DHT22;10317;47.254;11.314;2023-04-01T22:31:24;5.40;99.90
20319;DHT22;10317;47.254;11.314;2023-04-01T22:34:04;5.40;99.90
20319;DHT22;10317;47.254;11.314;2023-04-01T22:36:39;5.40;99.90
20319;DHT22;10317;47.254;11.314;2023-04-01T22:42:15;5.50;99.90
20319;DHT22;10317;47.254;11.314;2023-04-01T22:47:47;5.50;99.90
20319;DHT22;10317;47.254;11.314;2023-04-01T22:50:24;5.50;99.90
20319;DHT22;10317;47.254;11.314;2023-04-01T22:55:36;5.30;99.90
20319;DHT22;10317;47.254;11.314;2023-04-01T22:58:08;5.30;99.90
20319;DHT22;10317;47.254;11.314;2023-04-01T23:00:55;5.30;99.90
20319;DHT22;10317;47.254;11.314;2023-04-01T23:03:41;5.30;99.90
20319;DHT22;10317;47.254;11.314;2023-04-01T23:06:25;5.30;99.90
20319;DHT22;10317;47.254;11.314;2023-04-01T23:27:56;5.40;99.90
20319;DHT22;10317;47.254;11.314;2023-04-01T23:33:32;5.40;99.90
20319;DHT22;10317;47.254;11.314;2023-04-01T23:36:10;5.40;99.90
20319;DHT22;10317;47.254;11.314;2023-04-01T23:38:39;5.40;99.90
20319;DHT22;10317;47.254;11.314;2023-04-01T23:41:16;5.40;99.90
20319;DHT22;10317;47.254;11.314;2023-04-01T23:43:43;5.40;99.90
20319;DHT22;10317;47.254;11.314;2023-04-01T23:46:11;5.30;99.90
20319;DHT22;10317;47.254;11.314;2023-04-01T23:48:43;5.40;99.90
20319;DHT22;10317;47.254;11.314;2023-04-01T23:51:18;5.30;99.90
20319;DHT22;10317;47.254;11.314;2023-04-01T23:53:45;5.30;99.90
20319;DHT22;10317;47.254;11.314;2023-04-01T23:56:11;5.30;99.90
20319;DHT22;10317;47.254;11.314;2023-04-01T23:58:40;5.30;99.90
